Time;durP1;ratioP1;P1;durP2;ratioP2;P2;SDS_P1;SDS_P2;PMS_P1;PMS_P2;Temp;Humidity;BMP_temperature;BMP_pressure;BME280_temperature;BME280_humidity;BME280_pressure;Samples;Min_cycle;Max_cycle;Signal;HPM_P1;HPM_P2
2022/09/26 00:00:33;;;;;;;3.45;2.45;;;13.80;99.90;;;;;;5117351;27;20214;-65
2022/09/26 00:02:59;;;;;;;6.32;2.30;;;13.70;99.90;;;;;;5097183;28;20297;-65
2022/09/26 00:05:25;;;;;;;3.72;3.22;;;13.60;99.90;;;;;;5096300;28;20652;-65
2022/09/26 00:07:50;;;;;;;4.72;3.33;;;13.50;99.90;;;;;;5078388;28;20188;-65
2022/09/26 00:10:16;;;;;;;3.63;2.33;;;13.40;99.90;;;;;;5094006;28;20214;-65
2022/09/26 00:12:42;;;;;;;2.58;2.35;;;13.40;99.90;;;;;;5101635;27;20551;-65
2022/09/26 00:15:08;;;;;;;2.67;2.47;;;13.50;99.90;;;;;;5111564;27;20304;-65
2022/09/26 00:17:33;;;;;;;6.18;3.13;;;13.70;99.90;;;;;;5113342;28;20389;-65
2022/09/26 00:19:59;;;;;;;4.25;2.97;;;13.60;99.90;;;;;;5060822;28;20283;-65
2022/09/26 00:22:25;;;;;;;3.70;3.05;;;13.50;99.90;;;;;;5118592;27;20179;-64
2022/09/26 00:24:51;;;;;;;4.22;3.38;;;13.30;99.90;;;;;;5093151;28;20180;-65
2022/09/26 00:27:19;;;;;;;5.38;2.72;;;13.20;99.90;;;;;;5088689;28;20664;-65
2022/09/26 00:29:44;;;;;;;5.38;3.15;;;13.20;99.90;;;;;;5108003;27;20184;-65
2022/09/26 00:32:10;;;;;;;4.40;3.42;;;13.20;99.90;;;;;;5104027;28;20625;-64
2022/09/26 00:34:36;;;;;;;5.50;2.92;;;13.20;99.90;;;;;;5081704;28;20184;-64
2022/09/26 00:37:01;;;;;;;5.75;2.88;;;13.20;99.90;;;;;;5064703;28;20196;-64
2022/09/26 00:39:27;;;;;;;6.45;2.70;;;13.30;99.90;;;;;;5095006;27;20651;-64
2022/09/26 00:41:53;;;;;;;8.75;3.25;;;13.40;99.90;;;;;;5082185;28;20176;-65
2022/09/26 00:44:40;;;;;;;4.32;3.08;;;13.30;99.90;;;;;;5090519;28;20749;-64
2022/09/26 00:47:25;;;;;;;3.97;2.75;;;13.20;99.90;;;;;;5098155;27;20199;-65
2022/09/26 00:49:56;;;;;;;5.10;3.65;;;13.20;99.90;;;;;;5103698;28;20229;-64
2022/09/26 00:52:29;;;;;;;4.03;2.53;;;13.20;99.90;;;;;;5102588;28;20226;-65
2022/09/26 00:54:58;;;;;;;4.57;2.95;;;13.30;99.90;;;;;;5104348;28;20179;-64
2022/09/26 00:57:39;;;;;;;2.80;2.42;;;13.20;99.90;;;;;;5106550;28;20557;-65
2022/09/26 01:00:09;;;;;;;7.97;3.42;;;13.20;99.90;;;;;;5104494;27;20185;-64
2022/09/26 01:02:35;;;;;;;5.03;2.90;;;13.20;99.90;;;;;;5100092;28;20186;-64
2022/09/26 01:05:04;;;;;;;4.55;2.65;;;13.10;99.90;;;;;;5093481;28;20231;-65
2022/09/26 01:07:30;;;;;;;5.55;3.40;;;13.00;99.90;;;;;;5116313;27;20190;-64
2022/09/26 01:09:57;;;;;;;3.72;2.72;;;13.10;99.90;;;;;;5114121;27;20196;-64
2022/09/26 01:12:23;;;;;;;2.47;2.30;;;13.10;99.90;;;;;;5112037;27;20218;-64
2022/09/26 01:14:52;;;;;;;8.32;2.70;;;13.10;99.90;;;;;;5093457;28;20287;-64
2022/09/26 01:17:18;;;;;;;5.65;3.72;;;13.20;99.90;;;;;;5106808;28;20721;-65
2022/09/26 01:20:06;;;;;;;8.82;2.55;;;13.10;99.90;;;;;;5111228;28;20177;-64
2022/09/26 01:23:12;;;;;;;5.47;2.72;;;13.10;99.90;;;;;;5095534;28;20169;-65
2022/09/26 01:25:43;;;;;;;5.80;2.83;;;13.20;99.90;;;;;;5099290;27;20702;-64
2022/09/26 01:28:43;;;;;;;4.18;2.75;;;13.10;99.90;;;;;;5074816;28;20184;-64
2022/09/26 01:31:33;;;;;;;2.83;2.40;;;12.90;99.90;;;;;;5097859;28;20181;-64
2022/09/26 01:33:58;;;;;;;5.47;2.67;;;13.00;99.90;;;;;;5088925;28;20191;-65
2022/09/26 01:37:03;;;;;;;5.50;3.25;;;13.00;99.90;;;;;;5105820;28;20184;-64
2022/09/26 01:39:57;;;;;;;5.22;2.80;;;13.10;99.90;;;;;;5093946;28;20192;-64
2022/09/26 01:42:43;;;;;;;4.85;3.40;;;13.10;99.90;;;;;;5108079;28;20177;-65
2022/09/26 01:45:23;;;;;;;4.82;3.53;;;13.10;99.90;;;;;;5107508;28;20168;-65
2022/09/26 01:47:59;;;;;;;6.03;3.47;;;13.10;99.90;;;;;;5098895;28;20218;-64
2022/09/26 01:50:34;;;;;;;3.40;2.78;;;13.00;99.90;;;;;;5112920;28;20175;-64
2022/09/26 01:53:04;;;;;;;5.72;3.47;;;13.00;99.90;;;;;;5104918;28;20175;-64
2022/09/26 01:55:37;;;;;;;4.35;2.50;;;13.00;99.90;;;;;;5109740;28;20648;-64
2022/09/26 01:58:13;;;;;;;4.18;3.38;;;13.10;99.90;;;;;;5098966;28;20206;-64
2022/09/26 02:00:41;;;;;;;3.92;2.92;;;13.10;99.90;;;;;;5090539;28;20171;-64
2022/09/26 02:03:11;;;;;;;4.13;2.70;;;13.10;99.90;;;;;;5113001;28;20172;-64
2022/09/26 02:05:51;;;;;;;4.07;2.63;;;13.10;99.90;;;;;;5112618;28;20183;-64
2022/09/26 02:08:23;;;;;;;2.45;2.25;;;13.00;99.90;;;;;;5101449;28;20191;-63
2022/09/26 02:10:58;;;;;;;3.65;2.40;;;12.90;99.90;;;;;;5108087;28;20305;-65
2022/09/26 02:13:30;;;;;;;4.80;2.75;;;12.90;99.90;;;;;;5088373;28;20572;-64
2022/09/26 02:16:07;;;;;;;4.75;2.50;;;12.90;99.90;;;;;;5104637;28;20180;-65
2022/09/26 02:18:48;;;;;;;2.35;2.15;;;13.00;99.90;;;;;;5105990;28;20202;-65
2022/09/26 02:21:19;;;;;;;3.08;2.67;;;12.90;99.90;;;;;;5096469;28;20263;-65
2022/09/26 02:23:47;;;;;;;2.70;2.05;;;12.90;99.90;;;;;;5096764;28;20181;-64
2022/09/26 02:26:13;;;;;;;2.63;1.95;;;12.90;99.90;;;;;;5093363;28;20181;-65
2022/09/26 02:28:39;;;;;;;4.90;2.28;;;13.00;99.90;;;;;;5074003;28;20189;-65
2022/09/26 02:31:07;;;;;;;2.10;1.90;;;13.00;99.90;;;;;;5092817;28;20301;-65
2022/09/26 02:33:34;;;;;;;6.30;2.75;;;13.10;99.90;;;;;;5115021;28;20194;-65
2022/09/26 02:36:01;;;;;;;4.68;2.40;;;13.10;99.90;;;;;;5103047;28;20191;-65
2022/09/26 02:38:30;;;;;;;8.00;5.00;;;13.20;99.90;;;;;;5115535;27;20204;-65
2022/09/26 02:41:23;;;;;;;5.95;2.50;;;13.10;99.90;;;;;;5097875;28;20218;-65
2022/09/26 02:44:09;;;;;;;5.13;2.30;;;13.00;99.90;;;;;;5089443;27;20232;-65
2022/09/26 02:46:56;;;;;;;5.82;3.85;;;13.00;99.90;;;;;;5097849;28;20176;-65
2022/09/26 02:50:00;;;;;;;3.00;2.13;;;13.10;99.90;;;;;;5101563;27;20176;-65
2022/09/26 02:52:50;;;;;;;9.48;3.50;;;13.30;99.90;;;;;;5112826;27;20198;-65
2022/09/26 02:55:30;;;;;;;6.07;2.67;;;13.30;99.90;;;;;;5107432;27;20515;-65
2022/09/26 02:58:09;;;;;;;6.88;2.88;;;13.20;99.90;;;;;;5115596;28;20196;-65
2022/09/26 03:00:55;;;;;;;3.90;2.78;;;13.20;99.90;;;;;;5102506;27;20208;-64
2022/09/26 03:03:30;;;;;;;6.93;2.10;;;13.10;99.90;;;;;;5102791;28;20509;-65
2022/09/26 03:05:59;;;;;;;3.83;3.45;;;13.30;99.90;;;;;;5116688;27;20186;-65
2022/09/26 03:08:37;;;;;;;9.98;2.80;;;13.30;99.90;;;;;;5071516;27;20188;-65
2022/09/26 03:11:05;;;;;;;3.88;2.38;;;13.30;99.90;;;;;;5111126;27;20199;-65
2022/09/26 03:13:37;;;;;;;4.00;2.58;;;13.10;99.90;;;;;;5114866;27;20313;-65
2022/09/26 03:16:04;;;;;;;5.68;2.45;;;13.20;99.90;;;;;;5108497;27;20176;-65
2022/09/26 03:19:00;;;;;;;5.63;2.20;;;13.10;99.90;;;;;;5080191;28;20668;-65
2022/09/26 03:21:26;;;;;;;2.10;1.85;;;13.10;99.90;;;;;;5109559;27;20192;-65
2022/09/26 03:23:52;;;;;;;4.78;2.50;;;13.20;99.90;;;;;;5114365;27;20176;-65
2022/09/26 03:26:23;;;;;;;3.55;2.20;;;13.20;99.90;;;;;;5105344;27;20179;-65
2022/09/26 03:28:50;;;;;;;3.17;2.28;;;13.10;99.90;;;;;;5100495;28;20200;-65
2022/09/26 03:31:19;;;;;;;2.88;2.10;;;13.20;99.90;;;;;;5096429;28;20544;-64
2022/09/26 03:33:46;;;;;;;3.80;2.33;;;13.20;99.90;;;;;;5115205;27;20271;-65
2022/09/26 03:36:12;;;;;;;4.00;2.35;;;13.10;99.90;;;;;;5121350;27;20199;-65
2022/09/26 03:38:38;;;;;;;2.65;2.40;;;13.00;99.90;;;;;;5102689;28;20664;-65
2022/09/26 03:41:04;;;;;;;2.45;2.25;;;13.10;99.90;;;;;;5102261;27;20179;-65
2022/09/26 03:43:30;;;;;;;3.35;2.60;;;13.00;99.90;;;;;;5088517;28;20215;-65
2022/09/26 03:45:56;;;;;;;2.58;2.38;;;12.90;99.90;;;;;;5087915;28;20260;-65
2022/09/26 03:48:22;;;;;;;4.43;2.90;;;12.80;99.90;;;;;;5096465;28;20189;-65
2022/09/26 03:50:47;;;;;;;3.05;2.28;;;12.90;99.90;;;;;;5069151;27;20178;-65
2022/09/26 03:53:13;;;;;;;4.22;2.40;;;13.00;99.90;;;;;;5080482;28;20234;-65
2022/09/26 03:55:39;;;;;;;2.20;2.05;;;13.20;99.90;;;;;;5096908;28;20181;-65
2022/09/26 03:58:04;;;;;;;3.22;2.58;;;13.00;99.90;;;;;;5098619;27;20628;-65
2022/09/26 04:00:30;;;;;;;2.72;2.45;;;13.20;99.90;;;;;;5096813;28;20193;-65
2022/09/26 04:03:01;;;;;;;5.30;2.88;;;13.10;99.90;;;;;;5080136;28;20245;-65
2022/09/26 04:05:27;;;;;;;2.95;2.42;;;13.10;99.90;;;;;;5080506;28;20173;-64
2022/09/26 04:07:53;;;;;;;4.13;2.70;;;13.10;99.90;;;;;;5081174;28;20215;-65
2022/09/26 04:10:18;;;;;;;7.88;3.45;;;13.20;99.90;;;;;;5086730;28;20679;-65
2022/09/26 04:12:44;;;;;;;8.88;3.67;;;13.20;99.90;;;;;;5114524;27;20180;-65
2022/09/26 04:15:10;;;;;;;5.65;5.10;;;13.20;99.90;;;;;;5095595;27;20180;-65
2022/09/26 04:17:36;;;;;;;4.88;3.53;;;13.20;99.90;;;;;;5095806;28;20211;-65
2022/09/26 04:20:03;;;;;;;8.85;4.32;;;13.10;99.90;;;;;;5096555;28;20196;-64
2022/09/26 04:22:29;;;;;;;3.53;3.20;;;12.90;99.90;;;;;;5112074;27;20246;-64
2022/09/26 04:24:55;;;;;;;4.30;2.88;;;12.80;99.90;;;;;;5083845;27;20184;-64
2022/09/26 04:27:25;;;;;;;6.35;3.45;;;12.90;99.90;;;;;;5107071;27;20641;-64
2022/09/26 04:29:51;;;;;;;10.38;4.07;;;12.90;99.90;;;;;;5105371;27;20176;-64
2022/09/26 04:32:18;;;;;;;4.75;2.78;;;13.10;99.90;;;;;;5098893;27;20211;-63
2022/09/26 04:34:43;;;;;;;7.32;3.60;;;13.20;99.90;;;;;;5114006;27;20271;-64
2022/09/26 04:37:09;;;;;;;7.20;2.97;;;13.10;99.90;;;;;;5106004;27;20294;-64
2022/09/26 04:39:34;;;;;;;5.60;3.15;;;13.00;99.90;;;;;;5114119;27;20198;-66
2022/09/26 04:42:00;;;;;;;3.40;2.40;;;13.00;99.90;;;;;;5114081;27;20509;-66
2022/09/26 04:44:26;;;;;;;6.50;3.10;;;13.00;99.90;;;;;;5092086;28;20184;-66
2022/09/26 04:46:52;;;;;;;3.15;2.55;;;13.00;99.90;;;;;;5088418;28;20212;-67
2022/09/26 04:49:18;;;;;;;4.93;2.60;;;13.00;99.90;;;;;;5098834;27;20176;-66
2022/09/26 04:51:44;;;;;;;4.15;2.50;;;12.90;99.90;;;;;;5059189;28;20260;-66
2022/09/26 04:54:10;;;;;;;5.75;2.95;;;12.90;99.90;;;;;;5112830;28;20734;-66
2022/09/26 04:56:35;;;;;;;2.65;2.10;;;12.90;99.90;;;;;;5073106;28;20638;-65
2022/09/26 04:59:01;;;;;;;2.72;2.53;;;12.90;99.90;;;;;;5091216;28;20269;-66
2022/09/26 05:01:27;;;;;;;5.38;2.90;;;12.80;99.90;;;;;;5093552;28;20317;-66
2022/09/26 05:03:56;;;;;;;3.55;2.65;;;12.80;99.90;;;;;;5105627;27;20180;-66
2022/09/26 05:06:22;;;;;;;5.03;2.90;;;12.80;99.90;;;;;;5082251;27;20180;-66
2022/09/26 05:08:48;;;;;;;4.82;3.20;;;12.90;99.90;;;;;;5087002;28;20196;-67
2022/09/26 05:11:15;;;;;;;4.88;2.75;;;12.80;99.90;;;;;;5100833;27;20659;-67
2022/09/26 05:13:42;;;;;;;3.72;2.83;;;12.90;99.90;;;;;;5100937;28;20228;-66
2022/09/26 05:16:09;;;;;;;6.67;2.93;;;13.00;99.90;;;;;;5117371;27;20190;-66
2022/09/26 05:18:36;;;;;;;4.30;2.92;;;13.00;99.90;;;;;;5080896;28;20566;-66
2022/09/26 05:21:04;;;;;;;5.22;2.65;;;13.00;99.90;;;;;;5068937;27;20593;-65
2022/09/26 05:26:18;;;;;;;4.25;2.53;;;12.90;99.90;;;;;;5090065;28;20207;-66
2022/09/26 05:28:51;;;;;;;3.83;3.08;;;13.00;99.90;;;;;;5100594;28;20183;-66
2022/09/26 05:31:18;;;;;;;6.38;3.35;;;13.00;99.90;;;;;;5102566;28;20208;-65
2022/09/26 05:33:44;;;;;;;4.78;2.83;;;13.10;99.90;;;;;;5057811;28;20185;-67
2022/09/26 05:36:10;;;;;;;5.18;3.10;;;13.10;99.90;;;;;;5113373;28;20172;-66
2022/09/26 05:38:36;;;;;;;5.35;2.30;;;13.00;99.90;;;;;;5110548;28;20661;-66
2022/09/26 05:41:02;;;;;;;5.43;3.42;;;13.10;99.90;;;;;;5060783;28;20229;-66
2022/09/26 05:43:30;;;;;;;5.75;3.53;;;13.10;99.90;;;;;;5090646;28;20208;-66
2022/09/26 05:45:57;;;;;;;8.07;2.92;;;13.10;99.90;;;;;;5108518;28;20636;-67
2022/09/26 05:48:24;;;;;;;3.45;2.72;;;13.10;99.90;;;;;;5074862;28;20667;-66
2022/09/26 05:50:50;;;;;;;7.28;2.92;;;13.20;99.90;;;;;;5093240;28;20318;-67
2022/09/26 05:53:16;;;;;;;5.88;3.78;;;13.20;99.90;;;;;;5083139;28;20683;-66
2022/09/26 05:55:41;;;;;;;2.83;2.58;;;13.20;99.90;;;;;;5103891;28;20188;-66
2022/09/26 05:58:08;;;;;;;3.05;2.35;;;13.20;99.90;;;;;;5062179;28;20203;-66
2022/09/26 06:00:35;;;;;;;6.65;3.40;;;13.20;99.90;;;;;;5077970;28;20700;-66
2022/09/26 06:03:02;;;;;;;7.78;2.45;;;13.20;99.90;;;;;;5109194;28;20180;-66
2022/09/26 06:05:29;;;;;;;3.17;2.63;;;13.00;99.90;;;;;;5078738;28;20181;-66
2022/09/26 06:07:57;;;;;;;3.72;3.08;;;13.00;99.90;;;;;;5107232;28;20188;-65
2022/09/26 06:10:23;;;;;;;4.60;2.65;;;13.10;99.90;;;;;;5101702;27;20195;-66
2022/09/26 06:12:49;;;;;;;17.90;2.75;;;13.00;99.90;;;;;;5109912;28;20223;-67
2022/09/26 06:15:15;;;;;;;3.13;2.70;;;13.00;99.90;;;;;;5082901;28;20552;-73
2022/09/26 06:17:41;;;;;;;6.07;4.75;;;12.90;99.90;;;;;;5083077;28;20262;-67
2022/09/26 06:20:07;;;;;;;5.32;2.80;;;13.00;99.90;;;;;;5111739;27;20192;-69
2022/09/26 06:22:42;;;;;;;2.88;2.35;;;13.10;99.90;;;;;;5116540;27;20550;-69
2022/09/26 06:25:09;;;;;;;3.15;1.92;;;13.20;99.90;;;;;;5116363;27;20545;-66
2022/09/26 06:27:37;;;;;;;4.47;2.38;;;13.30;99.90;;;;;;5089408;28;20181;-67
2022/09/26 06:30:08;;;;;;;5.57;3.17;;;13.20;99.90;;;;;;5091261;28;20180;-67
2022/09/26 06:32:35;;;;;;;9.55;3.13;;;13.20;99.90;;;;;;5108239;27;20200;-67
2022/09/26 06:35:01;;;;;;;3.17;2.88;;;13.10;99.90;;;;;;5110345;28;20187;-67
2022/09/26 06:37:27;;;;;;;2.45;2.25;;;13.20;99.90;;;;;;5066256;27;21665;-67
2022/09/26 06:39:53;;;;;;;4.60;2.38;;;13.30;99.90;;;;;;5101026;27;20271;-64
2022/09/26 06:42:18;;;;;;;2.80;2.10;;;13.10;99.90;;;;;;5095401;28;20540;-64
2022/09/26 06:44:44;;;;;;;6.07;2.63;;;13.00;99.90;;;;;;5090302;28;20186;-64
2022/09/26 06:47:11;;;;;;;5.28;2.42;;;12.90;99.90;;;;;;5089548;28;20184;-66
2022/09/26 06:49:37;;;;;;;3.47;2.60;;;13.00;99.90;;;;;;5062077;28;20176;-67
2022/09/26 06:52:03;;;;;;;2.40;1.60;;;13.00;99.90;;;;;;5098238;27;20234;-65
2022/09/26 06:54:29;;;;;;;3.28;2.63;;;13.00;99.90;;;;;;5099113;27;20626;-67
2022/09/26 06:56:55;;;;;;;4.60;3.15;;;13.10;99.90;;;;;;5097696;27;20188;-65
2022/09/26 06:59:21;;;;;;;3.15;2.15;;;13.10;99.90;;;;;;5102728;27;20191;-66
2022/09/26 07:01:47;;;;;;;3.05;2.38;;;13.20;99.90;;;;;;5061174;28;20657;-66
2022/09/26 07:04:14;;;;;;;6.18;2.22;;;13.30;99.90;;;;;;5098913;27;20244;-67
2022/09/26 07:06:40;;;;;;;2.78;2.20;;;13.30;99.90;;;;;;5102809;28;20191;-67
2022/09/26 07:09:06;;;;;;;10.80;2.20;;;13.40;99.90;;;;;;5097454;28;20241;-68
2022/09/26 07:11:32;;;;;;;4.07;2.15;;;13.40;99.90;;;;;;5109393;28;20716;-67
2022/09/26 07:14:01;;;;;;;2.70;2.50;;;13.50;99.90;;;;;;5084524;28;20180;-67
2022/09/26 07:16:27;;;;;;;4.15;2.40;;;13.50;99.90;;;;;;5092872;28;20177;-69
2022/09/26 07:18:54;;;;;;;4.47;2.83;;;13.50;99.90;;;;;;5087302;28;20235;-67
2022/09/26 07:21:19;;;;;;;3.60;2.90;;;13.50;99.90;;;;;;5108794;27;20252;-66
2022/09/26 07:23:45;;;;;;;2.50;2.22;;;13.60;99.90;;;;;;5105370;27;20649;-67
2022/09/26 07:26:11;;;;;;;11.32;2.85;;;13.60;99.90;;;;;;5090956;28;20180;-66
2022/09/26 07:28:37;;;;;;;4.75;2.53;;;13.60;99.90;;;;;;5099375;27;20273;-68
2022/09/26 07:31:03;;;;;;;6.60;3.13;;;13.60;99.90;;;;;;5102272;27;20544;-66
2022/09/26 07:33:29;;;;;;;3.13;2.03;;;13.50;99.90;;;;;;5079431;28;20258;-66
2022/09/26 07:35:56;;;;;;;5.05;2.85;;;13.50;99.90;;;;;;5090677;27;20216;-65
2022/09/26 07:38:23;;;;;;;10.05;2.92;;;13.70;99.90;;;;;;5070651;28;20281;-65
2022/09/26 07:40:53;;;;;;;5.57;2.10;;;13.70;99.90;;;;;;5109880;27;20192;-65
2022/09/26 07:43:19;;;;;;;6.30;2.28;;;13.80;99.90;;;;;;5095201;28;20215;-65
2022/09/26 07:51:15;;;;;;;6.57;2.60;;;13.80;99.90;;;;;;5084694;28;20232;-64
2022/09/26 07:53:41;;;;;;;2.80;2.40;;;13.50;99.90;;;;;;5110124;27;20218;-64
2022/09/26 07:56:10;;;;;;;3.58;2.40;;;13.60;99.90;;;;;;5087735;28;20638;-64
2022/09/26 07:58:45;;;;;;;7.30;2.55;;;13.50;99.90;;;;;;5075331;28;20204;-64
2022/09/26 08:01:15;;;;;;;2.70;2.08;;;13.50;99.90;;;;;;5089650;28;20644;-65
2022/09/26 08:03:43;;;;;;;12.48;2.33;;;13.50;99.90;;;;;;5111142;27;20642;-64
2022/09/26 08:06:09;;;;;;;5.88;3.10;;;13.60;99.90;;;;;;5109442;27;20301;-66
2022/09/26 08:08:35;;;;;;;12.95;3.45;;;13.70;99.90;;;;;;5114256;27;20237;-64
2022/09/26 08:11:02;;;;;;;8.13;4.18;;;13.80;99.90;;;;;;5074599;28;20195;-64
2022/09/26 08:13:30;;;;;;;5.88;2.88;;;14.00;99.90;;;;;;5091748;27;20204;-64
2022/09/26 08:16:02;;;;;;;6.38;3.10;;;14.10;99.90;;;;;;5105635;28;20176;-64
2022/09/26 08:18:28;;;;;;;6.93;3.00;;;14.20;99.90;;;;;;5094796;28;20286;-65
2022/09/26 08:20:54;;;;;;;6.78;2.88;;;14.10;99.90;;;;;;5091067;28;20180;-65
2022/09/26 08:23:20;;;;;;;5.35;2.47;;;14.20;99.90;;;;;;5102844;28;20181;-64
2022/09/26 08:25:46;;;;;;;3.63;2.60;;;14.20;99.90;;;;;;5091312;28;20797;-65
2022/09/26 08:28:12;;;;;;;2.80;2.53;;;14.20;99.90;;;;;;5098244;27;20204;-63
2022/09/26 08:30:39;;;;;;;5.57;2.38;;;14.30;99.90;;;;;;5083951;27;20227;-65
2022/09/26 08:33:07;;;;;;;3.95;2.83;;;14.20;99.90;;;;;;5107732;28;20179;-66
2022/09/26 08:35:37;;;;;;;5.80;2.45;;;14.10;99.90;;;;;;5105834;27;20179;-65
2022/09/26 08:38:07;;;;;;;7.13;2.65;;;14.10;99.90;;;;;;5103284;27;20206;-67
2022/09/26 08:40:51;;;;;;;4.43;2.53;;;14.20;99.90;;;;;;5068599;28;20180;-67
2022/09/26 08:43:41;;;;;;;6.78;2.53;;;14.10;99.90;;;;;;5105644;27;20188;-66
2022/09/26 08:46:36;;;;;;;6.25;2.17;;;14.20;99.90;;;;;;5103909;27;20168;-70
2022/09/26 08:49:34;;;;;;;3.97;2.45;;;14.20;99.90;;;;;;5089922;27;20259;-67
2022/09/26 08:52:04;;;;;;;2.05;1.85;;;14.00;99.90;;;;;;5086182;28;20266;-66
2022/09/26 08:54:42;;;;;;;6.38;2.63;;;14.00;99.90;;;;;;5109589;27;20176;-67
2022/09/26 08:57:19;;;;;;;5.80;2.17;;;14.10;99.90;;;;;;5083810;28;20599;-66
2022/09/26 08:59:47;;;;;;;1.50;1.33;;;14.20;99.90;;;;;;5111117;28;20181;-67
2022/09/26 09:02:30;;;;;;;2.53;2.00;;;14.30;99.90;;;;;;5108265;27;20553;-66
2022/09/26 09:05:14;;;;;;;4.72;2.50;;;14.40;99.90;;;;;;5102831;28;20184;-66
2022/09/26 09:07:40;;;;;;;4.13;2.60;;;14.50;99.90;;;;;;5109431;28;20179;-65
2022/09/26 09:10:13;;;;;;;5.03;2.95;;;14.50;99.90;;;;;;5063609;28;20675;-66
2022/09/26 09:13:00;;;;;;;2.38;2.28;;;14.30;99.90;;;;;;5113508;28;20547;-66
2022/09/26 09:15:51;;;;;;;7.13;2.78;;;14.20;99.90;;;;;;5106083;28;20260;-66
2022/09/26 09:18:47;;;;;;;4.10;2.33;;;13.90;99.90;;;;;;5099306;28;20212;-65
2022/09/26 09:21:12;;;;;;;5.47;2.78;;;13.90;99.90;;;;;;5123429;27;20187;-67
2022/09/26 09:24:12;;;;;;;3.38;3.05;;;13.80;99.90;;;;;;5095149;28;20659;-65
2022/09/26 09:27:17;;;;;;;5.43;2.60;;;13.70;99.90;;;;;;5109566;28;20182;-66
2022/09/26 09:30:08;;;;;;;4.95;2.97;;;13.70;99.90;;;;;;5081542;27;20226;-66
2022/09/26 09:32:51;;;;;;;7.35;3.75;;;13.60;99.90;;;;;;5089856;28;20180;-66
2022/09/26 09:35:24;;;;;;;5.13;2.92;;;13.60;99.90;;;;;;5104831;28;20215;-66
2022/09/26 09:37:52;;;;;;;3.67;2.30;;;13.60;99.90;;;;;;5090606;28;20209;-66
2022/09/26 09:40:34;;;;;;;2.83;2.63;;;13.70;99.90;;;;;;5074698;28;20226;-66
2022/09/26 09:43:06;;;;;;;3.55;3.20;;;13.70;99.90;;;;;;5081415;28;20171;-65
2022/09/26 09:46:09;;;;;;;7.15;3.80;;;13.50;99.90;;;;;;5107258;28;20236;-66
2022/09/26 09:48:34;;;;;;;5.32;3.33;;;13.50;99.90;;;;;;5085308;28;20180;-66
2022/09/26 09:51:23;;;;;;;7.97;3.85;;;13.60;99.90;;;;;;5106223;28;20197;-66
2022/09/26 09:54:09;;;;;;;4.90;3.92;;;13.60;99.90;;;;;;5113419;28;20176;-66
2022/09/26 09:57:02;;;;;;;4.57;2.95;;;13.60;99.90;;;;;;5111297;28;20670;-66
2022/09/26 09:59:55;;;;;;;4.70;3.05;;;13.60;99.90;;;;;;5091285;28;20199;-67
2022/09/26 10:02:45;;;;;;;5.45;2.83;;;13.60;99.90;;;;;;5113025;28;20243;-66
2022/09/26 10:05:29;;;;;;;4.28;3.80;;;13.60;99.90;;;;;;5115687;28;20628;-66
2022/09/26 10:07:57;;;;;;;5.70;2.78;;;13.60;99.90;;;;;;5110289;28;20266;-66
2022/09/26 10:11:00;;;;;;;4.47;2.92;;;13.70;99.90;;;;;;5105974;28;20193;-66
2022/09/26 10:13:26;;;;;;;6.13;3.20;;;13.70;99.90;;;;;;5077843;28;20229;-66
2022/09/26 10:16:04;;;;;;;6.70;3.17;;;13.80;99.90;;;;;;5077958;28;20180;-66
2022/09/26 10:18:30;;;;;;;4.05;3.30;;;13.90;99.90;;;;;;5110771;28;20283;-66
2022/09/26 10:21:10;;;;;;;6.63;3.08;;;13.70;99.90;;;;;;5094638;28;20274;-65
2022/09/26 10:23:39;;;;;;;3.13;2.45;;;13.70;99.90;;;;;;5105907;28;20521;-66
2022/09/26 10:26:07;;;;;;;6.10;3.65;;;13.60;99.90;;;;;;5092743;28;20183;-66
2022/09/26 10:28:48;;;;;;;5.25;3.35;;;13.50;99.90;;;;;;5095605;28;20180;-66
2022/09/26 10:31:28;;;;;;;8.38;4.05;;;13.50;99.90;;;;;;5101641;28;20225;-66
2022/09/26 10:34:01;;;;;;;14.52;3.63;;;13.60;99.90;;;;;;5109858;28;20284;-66
2022/09/26 10:36:35;;;;;;;3.90;2.95;;;13.60;99.90;;;;;;5106310;28;20335;-66
2022/09/26 10:42:00;;;;;;;5.28;3.33;;;13.50;99.90;;;;;;5110090;28;20242;-65
2022/09/26 10:44:34;;;;;;;9.02;3.17;;;13.50;99.90;;;;;;5112347;28;20266;-66
2022/09/26 10:47:08;;;;;;;2.88;2.60;;;13.40;99.90;;;;;;5112201;28;20180;-66
2022/09/26 10:50:10;;;;;;;5.10;3.22;;;13.50;99.90;;;;;;5092814;28;20172;-66
2022/09/26 10:52:48;;;;;;;3.80;2.60;;;13.40;99.90;;;;;;5079112;28;20671;-66
2022/09/26 10:55:37;;;;;;;4.20;3.60;;;13.40;99.90;;;;;;5086197;28;20178;-67
2022/09/26 10:58:07;;;;;;;3.40;3.10;;;13.20;99.90;;;;;;5108856;27;20724;-66
2022/09/26 11:00:36;;;;;;;3.15;2.85;;;13.20;99.90;;;;;;5097458;27;20188;-67
2022/09/26 11:03:18;;;;;;;4.53;3.08;;;13.20;99.90;;;;;;5094646;28;20180;-67
2022/09/26 11:05:59;;;;;;;3.10;2.75;;;13.20;99.90;;;;;;5113667;28;20192;-66
2022/09/26 11:08:36;;;;;;;2.47;2.35;;;13.30;99.90;;;;;;5090299;28;20228;-66
2022/09/26 11:11:11;;;;;;;2.92;2.38;;;13.30;99.90;;;;;;5086686;27;20387;-66
2022/09/26 11:14:02;;;;;;;5.88;3.05;;;13.30;99.90;;;;;;5097457;28;20548;-66
2022/09/26 11:16:35;;;;;;;4.47;2.85;;;13.30;99.90;;;;;;5113842;27;20569;-65
2022/09/26 11:19:31;;;;;;;4.68;3.47;;;13.30;99.90;;;;;;5071998;28;20216;-71
2022/09/26 11:22:27;;;;;;;7.03;3.10;;;13.30;99.90;;;;;;5083668;28;20228;-66
2022/09/26 11:25:08;;;;;;;5.95;3.58;;;13.30;99.90;;;;;;5088264;28;20181;-66
2022/09/26 11:28:05;;;;;;;4.57;3.05;;;13.20;99.90;;;;;;5093635;28;20216;-67
2022/09/26 11:30:36;;;;;;;9.52;4.47;;;13.20;99.90;;;;;;5111035;27;20253;-66
2022/09/26 11:33:05;;;;;;;5.13;3.15;;;13.20;99.90;;;;;;5088524;28;20561;-65
2022/09/26 11:35:53;;;;;;;5.10;3.20;;;13.20;99.90;;;;;;5067465;28;20607;-66
2022/09/26 11:38:37;;;;;;;5.45;3.50;;;13.30;99.90;;;;;;5082166;28;20200;-66
2022/09/26 11:41:35;;;;;;;5.28;3.47;;;13.20;99.90;;;;;;5094439;28;20233;-67
2022/09/26 11:44:28;;;;;;;2.38;2.15;;;13.20;99.90;;;;;;5096362;28;20217;-64
2022/09/26 11:46:57;;;;;;;11.13;3.08;;;13.20;99.90;;;;;;5087927;28;20226;-63
2022/09/26 11:50:06;;;;;;;7.38;2.65;;;13.40;99.90;;;;;;5094333;28;20258;-66
2022/09/26 11:52:47;;;;;;;5.78;3.60;;;13.40;99.90;;;;;;5074573;28;20177;-66
2022/09/26 11:55:23;;;;;;;2.70;2.50;;;13.40;99.90;;;;;;5114872;28;20470;-66
2022/09/26 11:58:13;;;;;;;3.95;3.08;;;13.50;99.90;;;;;;5126624;27;20198;-66
2022/09/26 12:01:06;;;;;;;3.20;2.58;;;13.40;99.90;;;;;;5122269;27;20180;-66
2022/09/26 12:03:51;;;;;;;3.70;3.08;;;13.40;99.90;;;;;;5099504;27;20585;-66
2022/09/26 12:06:35;;;;;;;6.68;3.67;;;13.50;99.90;;;;;;5100245;28;20287;-64
2022/09/26 12:09:38;;;;;;;3.20;2.67;;;13.60;99.90;;;;;;5107286;28;20217;-66
2022/09/26 12:12:20;;;;;;;2.97;2.67;;;13.70;99.90;;;;;;5107121;27;20222;-65
2022/09/26 12:15:01;;;;;;;2.72;2.50;;;13.70;99.90;;;;;;5097609;28;20184;-66
2022/09/26 12:17:39;;;;;;;3.33;2.90;;;13.90;99.90;;;;;;5102115;28;20331;-65
2022/09/26 12:20:20;;;;;;;2.75;2.50;;;13.90;99.90;;;;;;5091048;28;20195;-65
2022/09/26 12:22:58;;;;;;;2.83;2.55;;;13.90;99.90;;;;;;5089381;28;20286;-65
2022/09/26 12:25:35;;;;;;;3.38;2.42;;;13.90;99.90;;;;;;5109676;28;20176;-65
2022/09/26 12:28:42;;;;;;;2.60;2.20;;;14.00;99.90;;;;;;5101742;27;20233;-65
2022/09/26 12:31:22;;;;;;;2.97;2.42;;;13.90;99.90;;;;;;5031575;28;20194;-65
2022/09/26 12:34:19;;;;;;;3.22;2.92;;;14.00;99.90;;;;;;5108336;27;20278;-66
2022/09/26 12:37:13;;;;;;;2.28;1.92;;;14.10;99.90;;;;;;5039020;28;20194;-65
2022/09/26 12:40:23;;;;;;;2.83;2.63;;;14.00;99.90;;;;;;5066983;28;20204;-65
2022/09/26 12:43:12;;;;;;;2.35;2.15;;;14.00;99.90;;;;;;5112447;27;20532;-66
2022/09/26 12:46:03;;;;;;;3.92;2.20;;;14.10;99.90;;;;;;5106267;27;20263;-66
2022/09/26 12:48:47;;;;;;;2.38;2.15;;;14.20;99.90;;;;;;5094753;28;20177;-66
2022/09/26 12:51:41;;;;;;;6.38;2.58;;;14.10;99.90;;;;;;5084053;28;20200;-66
2022/09/26 12:54:32;;;;;;;2.60;2.38;;;14.00;99.90;;;;;;5112104;27;20184;-67
2022/09/26 12:57:37;;;;;;;4.50;3.03;;;14.10;99.90;;;;;;5100849;28;20187;-66
2022/09/26 13:00:21;;;;;;;2.17;1.98;;;14.00;99.90;;;;;;5113538;28;20189;-65
2022/09/26 13:03:09;;;;;;;3.33;2.00;;;13.90;99.90;;;;;;5091983;28;20234;-65
2022/09/26 13:05:35;;;;;;;2.63;2.13;;;14.10;99.90;;;;;;5104898;27;20306;-65
2022/09/26 13:08:23;;;;;;;3.00;2.58;;;14.00;99.90;;;;;;5087678;28;20669;-65
2022/09/26 13:11:09;;;;;;;3.08;2.30;;;13.90;99.90;;;;;;5104166;28;20248;-64
2022/09/26 13:13:53;;;;;;;2.58;2.38;;;13.80;99.90;;;;;;5106276;27;20188;-66
2022/09/26 13:16:37;;;;;;;2.67;2.15;;;13.80;99.90;;;;;;5107509;28;20179;-65
2022/09/26 13:19:22;;;;;;;2.03;1.88;;;13.70;99.90;;;;;;5093545;27;20235;-65
2022/09/26 13:21:58;;;;;;;2.25;2.05;;;13.80;99.90;;;;;;5110434;27;20229;-65
2022/09/26 13:24:33;;;;;;;1.77;1.67;;;13.80;99.90;;;;;;5105735;27;20184;-65
2022/09/26 13:27:15;;;;;;;4.45;1.83;;;13.90;99.90;;;;;;5112884;28;20258;-64
2022/09/26 13:29:45;;;;;;;5.20;2.85;;;14.00;99.90;;;;;;5110334;28;20165;-65
2022/09/26 13:32:29;;;;;;;3.83;3.22;;;14.00;99.90;;;;;;5094698;28;20232;-65